Time;durP1;ratioP1;P1;durP2;ratioP2;P2;SDS_P1;SDS_P2;PMS_P1;PMS_P2;Temp;Humidity;BMP_temperature;BMP_pressure;BME280_temperature;BME280_humidity;BME280_pressure;Samples;Min_cycle;Max_cycle;Signal;HPM_P1;HPM_P2
2022/01/14 00:00:24;;;;;;;;;;;;;;;;;;1033813;28;1091;-34
2022/01/14 00:00:54;;;;;;;;;;;;;;;;;;1032378;28;1134;-31
2022/01/14 00:01:24;;;;;;;;;;;;;;;;;;1032755;28;1300;-33
2022/01/14 00:01:55;;;;;;;;;;;;;;;;;;1029962;28;1072;-29
2022/01/14 00:02:26;;;;;;;;;;;;;;;;;;1032651;28;1087;-32
2022/01/14 00:02:56;;;;;;;;;;;;;;;;;;1033633;28;1134;-31
2022/01/14 00:03:26;;;;;;;;;;;;;;;;;;1033865;28;1199;-32
2022/01/14 00:03:57;;;;;;;;;;;;;;;;;;1032850;28;1226;-34
2022/01/14 00:04:27;;;;;;;;;;;;;;;;;;1032642;28;1190;-30
2022/01/14 00:04:58;;;;;;;;;;;;;;;;;;1033388;28;1032;-29
2022/01/14 00:05:28;;;;;;;;;;;;;;;;;;1033877;28;1128;-30
2022/01/14 00:05:59;;;;;;;;;;;;;;;;;;1033209;28;1190;-29
2022/01/14 00:06:29;;;;;;;;;;;;;;;;;;1032614;28;1115;-33
2022/01/14 00:06:59;;;;;;;;;;;;;;;;;;1033291;28;1178;-31
2022/01/14 00:07:30;;;;;;;;;;;;;;;;;;1033773;28;1195;-29
2022/01/14 00:08:00;;;;;;;;;;;;;;;;;;1033385;28;1213;-29
2022/01/14 00:08:30;;;;;;;;;;;;;;;;;;1032624;28;1111;-30
2022/01/14 00:09:06;;;;;;;;;;;;;;;;;;1033020;28;1115;-30
2022/01/14 00:09:38;;;;;;;;;;;;;;;;;;1032851;28;1154;-32
2022/01/14 00:10:09;;;;;;;;;;;;;;;;;;1032571;28;1268;-30
2022/01/14 00:10:41;;;;;;;;;;;;;;;;;;1033162;28;1103;-32
2022/01/14 00:11:16;;;;;;;;;;;;;;;;;;1033926;28;1317;-30
2022/01/14 00:11:54;;;;;;;;;;;;;;;;;;1030874;28;954;-34
2022/01/14 00:12:28;;;;;;;;;;;;;;;;;;1031099;28;1127;-28
2022/01/14 00:13:07;;;;;;;;;;;;;;;;;;1030524;28;1100;-34
2022/01/14 00:14:07;;;;;;;;;;;;;;;;;;1031382;28;1307;-31
2022/01/14 00:14:43;;;;;;;;;;;;;;;;;;1033657;28;1146;-32
2022/01/14 00:15:35;;;;;;;;;;;;;;;;;;1031980;28;1142;-33
2022/01/14 00:16:04;;;;;;;;;;;;;;;;;;1033060;28;1256;-33
2022/01/14 00:16:35;;;;;;;;;;;;;;;;;;1033245;28;1175;-28
2022/01/14 00:17:06;;;;;;;;;;;;;;;;;;1032638;28;1182;-27
2022/01/14 00:17:36;;;;;;;;;;;;;;;;;;1032730;28;1264;-32
2022/01/14 00:18:07;;;;;;;;;;;;;;;;;;1033881;28;1103;-34
2022/01/14 00:18:37;;;;;;;;;;;;;;;;;;1033760;28;1084;-33
2022/01/14 00:19:07;;;;;;;;;;;;;;;;;;1032585;28;1222;-34
2022/01/14 00:19:38;;;;;;;;;;;;;;;;;;1032579;28;1229;-31
2022/01/14 00:20:09;;;;;;;;;;;;;;;;;;1034066;28;1127;-31
2022/01/14 00:20:39;;;;;;;;;;;;;;;;;;1033609;28;1139;-30
2022/01/14 00:21:10;;;;;;;;;;;;;;;;;;1028353;28;1167;-26
2022/01/14 00:21:42;;;;;;;;;;;;;;;;;;1028023;28;1063;-35
2022/01/14 00:22:15;;;;;;;;;;;;;;;;;;1029177;28;1249;-33
2022/01/14 00:22:45;;;;;;;;;;;;;;;;;;1029631;28;1096;-31
2022/01/14 00:23:17;;;;;;;;;;;;;;;;;;1029981;28;1234;-29
2022/01/14 00:23:51;;;;;;;;;;;;;;;;;;1031922;28;1051;-32
2022/01/14 00:31:57;;;;;;;;;;;;;;;;;;1035543;28;1175;-30
2022/01/14 00:32:49;;;;;;;;;;;;;;;;;;1037734;28;1458;-31
2022/01/14 00:33:19;;;;;;;;;;;;;;;;;;1037953;28;1220;-31
2022/01/14 00:33:49;;;;;;;;;;;;;;;;;;1037902;28;1210;-33
2022/01/14 00:34:20;;;;;;;;;;;;;;;;;;1036706;28;1150;-30
2022/01/14 00:34:50;;;;;;;;;;;;;;;;;;1036587;28;1206;-32
2022/01/14 00:35:20;;;;;;;;;;;;;;;;;;1037695;28;1103;-29
2022/01/14 00:35:51;;;;;;;;;;;;;;;;;;1038020;28;1142;-31
2022/01/14 00:36:21;;;;;;;;;;;;;;;;;;1037328;28;1178;-27
2022/01/14 00:36:51;;;;;;;;;;;;;;;;;;1037275;28;1201;-29
2022/01/14 00:37:22;;;;;;;;;;;;;;;;;;1038353;28;1094;-30
2022/01/14 00:37:52;;;;;;;;;;;;;;;;;;1038639;28;1067;-30
2022/01/14 00:38:22;;;;;;;;;;;;;;;;;;1037976;28;1086;-33
2022/01/14 00:38:53;;;;;;;;;;;;;;;;;;1037306;28;1015;-33
2022/01/14 00:39:23;;;;;;;;;;;;;;;;;;1038191;28;1110;-32
2022/01/14 00:39:53;;;;;;;;;;;;;;;;;;1038668;28;1138;-34
2022/01/14 00:40:24;;;;;;;;;;;;;;;;;;1037919;28;1118;-31
2022/01/14 00:40:54;;;;;;;;;;;;;;;;;;1037278;28;1190;-29
2022/01/14 00:41:24;;;;;;;;;;;;;;;;;;1038029;28;1186;-27
2022/01/14 00:41:55;;;;;;;;;;;;;;;;;;1038669;28;1026;-30
2022/01/14 00:42:25;;;;;;;;;;;;;;;;;;1039175;28;1261;-29
2022/01/14 00:42:56;;;;;;;;;;;;;;;;;;1039999;28;961;-30
2022/01/14 00:43:26;;;;;;;;;;;;;;;;;;1040137;28;925;-33
2022/01/14 00:44:01;;;;;;;;;;;;;;;;;;1040125;28;925;-30
2022/01/14 00:44:31;;;;;;;;;;;;;;;;;;1040088;28;949;-26
2022/01/14 00:45:06;;;;;;;;;;;;;;;;;;1040194;28;810;-29
2022/01/14 00:45:37;;;;;;;;;;;;;;;;;;1040046;28;782;-28
2022/01/14 00:46:08;;;;;;;;;;;;;;;;;;1040244;28;862;-31
2022/01/14 00:46:39;;;;;;;;;;;;;;;;;;1040146;28;1126;-31
2022/01/14 00:47:09;;;;;;;;;;;;;;;;;;1040169;28;963;-32
2022/01/14 00:47:40;;;;;;;;;;;;;;;;;;1040104;28;929;-28
2022/01/14 00:48:11;;;;;;;;;;;;;;;;;;1040102;28;873;-32
2022/01/14 00:48:42;;;;;;;;;;;;;;;;;;1039230;28;1196;-31
2022/01/14 00:49:13;;;;;;;;;;;;;;;;;;1036062;28;827;-32
2022/01/14 00:49:44;;;;;;;;;;;;;;;;;;1035939;28;871;-33
2022/01/14 00:50:15;;;;;;;;;;;;;;;;;;1035900;28;906;-32
2022/01/14 00:50:45;;;;;;;;;;;;;;;;;;1036088;28;891;-31
2022/01/14 00:51:16;;;;;;;;;;;;;;;;;;1035961;28;1927;-30
2022/01/14 00:51:46;;;;;;;;;;;;;;;;;;1036046;28;930;-33
2022/01/14 00:52:16;;;;;;;;;;;;;;;;;;1036034;28;776;-30
2022/01/14 00:52:47;;;;;;;;;;;;;;;;;;1036018;28;929;-29
2022/01/14 00:53:18;;;;;;;;;;;;;;;;;;1036073;28;776;-28
2022/01/14 00:53:48;;;;;;;;;;;;;;;;;;1035891;28;937;-32
2022/01/14 00:54:19;;;;;;;;;;;;;;;;;;1036080;28;830;-32
2022/01/14 00:54:49;;;;;;;;;;;;;;;;;;1036018;28;941;-30
2022/01/14 00:55:27;;;;;;;;;;;;;;;;;;1035958;28;879;-29
2022/01/14 00:56:20;;;;;;;;;;;;;;;;;;1035975;28;902;-29
2022/01/14 00:59:17;;;;;;;;;;;;;;;;;;1035859;28;962;-32
2022/01/14 00:59:48;;;;;;;;;;;;;;;;;;1036030;28;961;-30
2022/01/14 01:00:21;;;;;;;;;;;;;;;;;;1035817;28;930;-31
2022/01/14 01:00:51;;;;;;;;;;;;;;;;;;1036073;28;855;-28
2022/01/14 01:01:21;;;;;;;;;;;;;;;;;;1035984;28;803;-32
2022/01/14 01:01:53;;;;;;;;;;;;;;;;;;1035872;28;755;-32
2022/01/14 01:02:23;;;;;;;;;;;;;;;;;;1036125;28;978;-33
2022/01/14 01:02:53;;;;;;;;;;;;;;;;;;1035887;28;933;-32
2022/01/14 01:03:24;;;;;;;;;;;;;;;;;;1036020;28;932;-29
2022/01/14 01:03:54;;;;;;;;;;;;;;;;;;1031534;28;874;-29
2022/01/14 01:04:29;;;;;;;;;;;;;;;;;;1031677;28;855;-32
2022/01/14 01:04:59;;;;;;;;;;;;;;;;;;1031533;28;1080;-29
2022/01/14 01:05:30;;;;;;;;;;;;;;;;;;1032205;28;931;-29
2022/01/14 01:06:00;;;;;;;;;;;;;;;;;;1035925;28;823;-30
2022/01/14 01:06:31;;;;;;;;;;;;;;;;;;1036033;28;869;-31
2022/01/14 01:07:02;;;;;;;;;;;;;;;;;;1035908;28;1004;-29
2022/01/14 01:07:33;;;;;;;;;;;;;;;;;;1035869;28;918;-32
2022/01/14 01:08:09;;;;;;;;;;;;;;;;;;1035937;28;858;-29
2022/01/14 01:08:39;;;;;;;;;;;;;;;;;;1036055;28;810;-28
2022/01/14 01:09:11;;;;;;;;;;;;;;;;;;1036025;28;842;-31
2022/01/14 01:09:46;;;;;;;;;;;;;;;;;;1035819;28;946;-30
2022/01/14 01:10:18;;;;;;;;;;;;;;;;;;1035774;28;1415;-32
2022/01/14 01:10:49;;;;;;;;;;;;;;;;;;1035958;28;1569;-29
2022/01/14 01:11:25;;;;;;;;;;;;;;;;;;1035782;28;1911;-30
2022/01/14 01:12:15;;;;;;;;;;;;;;;;;;1035488;28;1035;-34
2022/01/14 01:12:56;;;;;;;;;;;;;;;;;;1036181;28;926;-35
2022/01/14 01:13:32;;;;;;;;;;;;;;;;;;1035975;28;847;-31
2022/01/14 01:14:16;;;;;;;;;;;;;;;;;;1035938;28;1314;-30
2022/01/14 01:15:02;;;;;;;;;;;;;;;;;;1035939;28;875;-28
2022/01/14 01:15:32;;;;;;;;;;;;;;;;;;1035897;28;939;-31
2022/01/14 01:16:03;;;;;;;;;;;;;;;;;;1035878;28;775;-29
2022/01/14 01:16:33;;;;;;;;;;;;;;;;;;1035938;28;827;-31
2022/01/14 01:17:04;;;;;;;;;;;;;;;;;;1035944;28;1237;-30
2022/01/14 01:17:35;;;;;;;;;;;;;;;;;;1035903;28;788;-29
2022/01/14 01:18:05;;;;;;;;;;;;;;;;;;1036013;28;886;-33
2022/01/14 01:18:35;;;;;;;;;;;;;;;;;;1035858;28;879;-34
2022/01/14 01:19:06;;;;;;;;;;;;;;;;;;1035949;28;779;-30
2022/01/14 01:19:36;;;;;;;;;;;;;;;;;;1035777;28;1208;-32
2022/01/14 01:20:15;;;;;;;;;;;;;;;;;;1035886;28;858;-32
2022/01/14 01:20:46;;;;;;;;;;;;;;;;;;1036061;28;945;-30
2022/01/14 01:21:16;;;;;;;;;;;;;;;;;;1035777;28;807;-29
2022/01/14 01:21:47;;;;;;;;;;;;;;;;;;1035986;28;945;-31
2022/01/14 01:22:17;;;;;;;;;;;;;;;;;;1035812;28;851;-27
2022/01/14 01:22:59;;;;;;;;;;;;;;;;;;1035411;28;1160;-32
2022/01/14 01:23:38;;;;;;;;;;;;;;;;;;1035468;28;1468;-34
2022/01/14 01:24:15;;;;;;;;;;;;;;;;;;1031328;28;1556;-29
2022/01/14 01:24:45;;;;;;;;;;;;;;;;;;1031641;28;961;-26
2022/01/14 01:25:19;;;;;;;;;;;;;;;;;;1031487;28;1393;-28
2022/01/14 01:25:56;;;;;;;;;;;;;;;;;;1030439;28;1563;-31
2022/01/14 01:26:31;;;;;;;;;;;;;;;;;;1031726;28;970;-30
2022/01/14 01:27:08;;;;;;;;;;;;;;;;;;1031763;28;934;-33
2022/01/14 01:27:41;;;;;;;;;;;;;;;;;;1031835;28;981;-28
2022/01/14 01:28:11;;;;;;;;;;;;;;;;;;1031759;28;989;-32
2022/01/14 01:29:01;;;;;;;;;;;;;;;;;;1031880;28;954;-29
2022/01/14 01:29:48;;;;;;;;;;;;;;;;;;1031655;28;938;-30
2022/01/14 01:31:05;;;;;;;;;;;;;;;;;;1031740;28;903;-32
2022/01/14 01:31:35;;;;;;;;;;;;;;;;;;1021033;28;1273;-31
2022/01/14 01:32:02;;;;;;;;;;;;;;;;;;1031647;28;1458;-30
2022/01/14 01:32:32;;;;;;;;;;;;;;;;;;1031746;28;866;-30
2022/01/14 01:33:05;;;;;;;;;;;;;;;;;;1031897;28;910;-30
2022/01/14 01:33:35;;;;;;;;;;;;;;;;;;1031655;28;880;-31
2022/01/14 01:34:11;;;;;;;;;;;;;;;;;;1031930;28;862;-30
2022/01/14 01:34:42;;;;;;;;;;;;;;;;;;1031732;28;775;-28
2022/01/14 01:35:13;;;;;;;;;;;;;;;;;;1031731;28;898;-29
2022/01/14 01:35:44;;;;;;;;;;;;;;;;;;1031887;28;1295;-30
2022/01/14 01:36:14;;;;;;;;;;;;;;;;;;1031647;28;891;-30
2022/01/14 01:36:46;;;;;;;;;;;;;;;;;;1031981;28;859;-34
2022/01/14 01:37:16;;;;;;;;;;;;;;;;;;1031634;28;970;-31
2022/01/14 01:37:46;;;;;;;;;;;;;;;;;;1031856;28;875;-31
2022/01/14 01:38:17;;;;;;;;;;;;;;;;;;1031854;28;896;-33
2022/01/14 01:38:48;;;;;;;;;;;;;;;;;;1031844;28;957;-31
2022/01/14 01:39:20;;;;;;;;;;;;;;;;;;1031753;28;835;-32
2022/01/14 01:39:51;;;;;;;;;;;;;;;;;;1031958;28;1060;-29
2022/01/14 01:40:22;;;;;;;;;;;;;;;;;;1031670;28;870;-34
2022/01/14 01:40:52;;;;;;;;;;;;;;;;;;1031816;28;869;-31
2022/01/14 01:41:23;;;;;;;;;;;;;;;;;;1031602;28;1074;-33
2022/01/14 01:41:55;;;;;;;;;;;;;;;;;;1031832;28;1325;-32
2022/01/14 01:42:29;;;;;;;;;;;;;;;;;;1031683;28;1017;-32
2022/01/14 01:43:03;;;;;;;;;;;;;;;;;;1031783;28;882;-34
2022/01/14 01:43:34;;;;;;;;;;;;;;;;;;1031687;28;891;-27
2022/01/14 01:44:07;;;;;;;;;;;;;;;;;;1031819;28;847;-31
2022/01/14 01:44:39;;;;;;;;;;;;;;;;;;1031785;28;784;-28
2022/01/14 01:45:11;;;;;;;;;;;;;;;;;;1031776;28;930;-31
2022/01/14 01:45:44;;;;;;;;;;;;;;;;;;1031720;28;870;-31
2022/01/14 01:46:14;;;;;;;;;;;;;;;;;;1031722;28;946;-32
2022/01/14 01:46:47;;;;;;;;;;;;;;;;;;1031835;28;937;-31
2022/01/14 01:47:21;;;;;;;;;;;;;;;;;;1031290;28;818;-27
2022/01/14 01:47:54;;;;;;;;;;;;;;;;;;1031696;28;1309;-29
2022/01/14 01:48:24;;;;;;;;;;;;;;;;;;1031935;28;954;-30
2022/01/14 01:48:55;;;;;;;;;;;;;;;;;;1034403;28;1138;-29
2022/01/14 01:49:27;;;;;;;;;;;;;;;;;;1035708;28;913;-31
2022/01/14 01:49:57;;;;;;;;;;;;;;;;;;1035801;28;1001;-31
2022/01/14 01:50:29;;;;;;;;;;;;;;;;;;1035732;28;949;-30
2022/01/14 01:50:59;;;;;;;;;;;;;;;;;;1035794;28;815;-29
2022/01/14 01:51:29;;;;;;;;;;;;;;;;;;1035796;28;1922;-30
2022/01/14 01:52:01;;;;;;;;;;;;;;;;;;1035674;28;894;-33
2022/01/14 01:52:31;;;;;;;;;;;;;;;;;;1035788;28;846;-32
2022/01/14 01:53:01;;;;;;;;;;;;;;;;;;1035884;28;984;-34
2022/01/14 01:53:32;;;;;;;;;;;;;;;;;;1035661;28;822;-28
2022/01/14 01:54:02;;;;;;;;;;;;;;;;;;1035882;28;799;-30
2022/01/14 01:54:33;;;;;;;;;;;;;;;;;;1035582;28;957;-30
2022/01/14 01:55:04;;;;;;;;;;;;;;;;;;1035880;28;953;-31
2022/01/14 01:55:34;;;;;;;;;;;;;;;;;;1035670;28;862;-28
2022/01/14 01:56:05;;;;;;;;;;;;;;;;;;1035773;28;949;-30
2022/01/14 01:56:35;;;;;;;;;;;;;;;;;;1035682;28;843;-29
2022/01/14 01:57:07;;;;;;;;;;;;;;;;;;1035879;28;847;-32
2022/01/14 01:57:38;;;;;;;;;;;;;;;;;;1035632;28;879;-32
2022/01/14 01:58:08;;;;;;;;;;;;;;;;;;1035852;28;1001;-31
2022/01/14 01:58:39;;;;;;;;;;;;;;;;;;1035677;28;913;-33
2022/01/14 01:59:09;;;;;;;;;;;;;;;;;;1035889;28;989;-29
2022/01/14 01:59:40;;;;;;;;;;;;;;;;;;1035705;28;996;-32
2022/01/14 02:00:11;;;;;;;;;;;;;;;;;;1035644;28;1009;-32
2022/01/14 02:00:51;;;;;;;;;;;;;;;;;;1035774;28;716;-31
2022/01/14 02:01:21;;;;;;;;;;;;;;;;;;1035748;28;945;-32
2022/01/14 02:01:52;;;;;;;;;;;;;;;;;;1035812;28;894;-31
2022/01/14 02:02:22;;;;;;;;;;;;;;;;;;1035651;28;803;-30
2022/01/14 02:02:54;;;;;;;;;;;;;;;;;;1035683;28;941;-31
2022/01/14 02:03:24;;;;;;;;;;;;;;;;;;1035779;28;993;-30
2022/01/14 02:03:55;;;;;;;;;;;;;;;;;;1035717;28;809;-29
2022/01/14 02:04:26;;;;;;;;;;;;;;;;;;1035616;28;954;-31
2022/01/14 02:04:58;;;;;;;;;;;;;;;;;;1035817;28;866;-30
2022/01/14 02:05:29;;;;;;;;;;;;;;;;;;1035594;28;894;-29
2022/01/14 02:06:00;;;;;;;;;;;;;;;;;;1035918;28;890;-29
2022/01/14 02:06:31;;;;;;;;;;;;;;;;;;1035503;28;858;-30
2022/01/14 02:07:01;;;;;;;;;;;;;;;;;;1035884;28;958;-27
2022/01/14 02:07:34;;;;;;;;;;;;;;;;;;1035590;28;822;-34
2022/01/14 02:08:05;;;;;;;;;;;;;;;;;;1035634;28;949;-31
2022/01/14 02:08:35;;;;;;;;;;;;;;;;;;1035745;28;949;-29
2022/01/14 02:09:06;;;;;;;;;;;;;;;;;;1035702;28;977;-29
2022/01/14 02:09:36;;;;;;;;;;;;;;;;;;1035715;28;894;-32
2022/01/14 02:10:07;;;;;;;;;;;;;;;;;;1035702;28;890;-29
2022/01/14 02:10:38;;;;;;;;;;;;;;;;;;1034640;28;1508;-33
2022/01/14 02:11:09;;;;;;;;;;;;;;;;;;1033766;28;950;-30
2022/01/14 02:11:40;;;;;;;;;;;;;;;;;;1032567;28;2389;-34
2022/01/14 02:12:11;;;;;;;;;;;;;;;;;;1035705;28;803;-29
2022/01/14 02:12:52;;;;;;;;;;;;;;;;;;1034957;28;851;-32
2022/01/14 02:13:23;;;;;;;;;;;;;;;;;;1031591;28;867;-32
2022/01/14 02:13:56;;;;;;;;;;;;;;;;;;1031727;28;890;-32
2022/01/14 02:15:14;;;;;;;;;;;;;;;;;;1031598;28;831;-30
2022/01/14 02:15:49;;;;;;;;;;;;;;;;;;1031464;28;946;-33
2022/01/14 02:18:13;;;;;;;;;;;;;;;;;;1031675;28;843;-31
2022/01/14 02:18:24;;;;;;;;;;;;;;;;;;1022867;29;1197;-30
2022/01/14 02:19:26;;;;;;;;;;;;;;;;;;1031644;28;894;-33
2022/01/14 02:22:48;;;;;;;;;;;;;;;;;;1031555;28;935;-28
2022/01/14 02:23:20;;;;;;;;;;;;;;;;;;1031444;28;934;-32
2022/01/14 02:23:55;;;;;;;;;;;;;;;;;;1031468;28;1013;-31
2022/01/14 02:24:44;;;;;;;;;;;;;;;;;;1031536;28;827;-25
2022/01/14 02:25:16;;;;;;;;;;;;;;;;;;1031677;28;890;-31
2022/01/14 02:25:47;;;;;;;;;;;;;;;;;;1028523;28;1031;-29
2022/01/14 02:26:18;;;;;;;;;;;;;;;;;;1029061;28;1041;-28
2022/01/14 02:26:52;;;;;;;;;;;;;;;;;;1031663;28;915;-28
2022/01/14 02:27:22;;;;;;;;;;;;;;;;;;1031617;28;913;-32
2022/01/14 02:27:53;;;;;;;;;;;;;;;;;;1031478;28;1016;-29
2022/01/14 02:28:23;;;;;;;;;;;;;;;;;;1031710;28;1599;-31
2022/01/14 02:28:54;;;;;;;;;;;;;;;;;;1031577;28;764;-30
2022/01/14 02:29:24;;;;;;;;;;;;;;;;;;1031560;28;934;-28
2022/01/14 02:29:55;;;;;;;;;;;;;;;;;;1031693;28;910;-29
2022/01/14 02:30:26;;;;;;;;;;;;;;;;;;1031347;28;822;-31
2022/01/14 02:30:56;;;;;;;;;;;;;;;;;;1031738;28;882;-32
2022/01/14 02:31:26;;;;;;;;;;;;;;;;;;1031371;28;2021;-32
2022/01/14 02:31:57;;;;;;;;;;;;;;;;;;1031574;28;895;-29
2022/01/14 02:32:28;;;;;;;;;;;;;;;;;;1031510;28;886;-33
2022/01/14 02:32:58;;;;;;;;;;;;;;;;;;1031668;28;882;-32
2022/01/14 02:33:29;;;;;;;;;;;;;;;;;;1031539;28;831;-32
2022/01/14 02:33:59;;;;;;;;;;;;;;;;;;1031544;28;1703;-30
2022/01/14 02:34:30;;;;;;;;;;;;;;;;;;1027179;28;878;-29
2022/01/14 02:35:00;;;;;;;;;;;;;;;;;;1027333;28;846;-29
2022/01/14 02:35:31;;;;;;;;;;;;;;;;;;1027169;28;985;-29
2022/01/14 02:36:02;;;;;;;;;;;;;;;;;;1027412;28;946;-32
2022/01/14 02:36:32;;;;;;;;;;;;;;;;;;1031656;28;936;-28
2022/01/14 02:37:03;;;;;;;;;;;;;;;;;;1031530;28;997;-31
2022/01/14 02:37:34;;;;;;;;;;;;;;;;;;1031454;28;954;-29
2022/01/14 02:38:05;;;;;;;;;;;;;;;;;;1031406;28;903;-31
2022/01/14 02:38:36;;;;;;;;;;;;;;;;;;1031635;28;954;-29
2022/01/14 02:39:07;;;;;;;;;;;;;;;;;;1031516;28;902;-31
2022/01/14 02:39:38;;;;;;;;;;;;;;;;;;1031483;28;958;-28
2022/01/14 02:40:09;;;;;;;;;;;;;;;;;;1031453;28;970;-30
2022/01/14 02:40:39;;;;;;;;;;;;;;;;;;1031433;28;1009;-29
2022/01/14 02:41:10;;;;;;;;;;;;;;;;;;1031475;28;942;-29
2022/01/14 02:41:41;;;;;;;;;;;;;;;;;;1031670;28;827;-26
2022/01/14 02:42:12;;;;;;;;;;;;;;;;;;1031447;28;919;-28
2022/01/14 02:42:43;;;;;;;;;;;;;;;;;;1031537;28;859;-28
2022/01/14 02:43:15;;;;;;;;;;;;;;;;;;1031662;28;1010;-28
2022/01/14 02:43:46;;;;;;;;;;;;;;;;;;1031386;28;827;-31
2022/01/14 02:44:20;;;;;;;;;;;;;;;;;;1031601;28;915;-30
2022/01/14 02:44:53;;;;;;;;;;;;;;;;;;1031424;28;763;-30
2022/01/14 02:45:27;;;;;;;;;;;;;;;;;;1031613;28;1083;-30
2022/01/14 02:45:57;;;;;;;;;;;;;;;;;;1031564;28;914;-28
2022/01/14 02:46:28;;;;;;;;;;;;;;;;;;1031389;28;1021;-32
2022/01/14 02:47:04;;;;;;;;;;;;;;;;;;1031618;28;899;-31
2022/01/14 02:47:35;;;;;;;;;;;;;;;;;;1031416;28;843;-30
2022/01/14 02:48:05;;;;;;;;;;;;;;;;;;1031588;28;898;-31
2022/01/14 02:48:35;;;;;;;;;;;;;;;;;;1031452;28;1157;-29
2022/01/14 02:49:06;;;;;;;;;;;;;;;;;;1031435;28;934;-31
2022/01/14 02:49:38;;;;;;;;;;;;;;;;;;1031582;28;839;-29
2022/01/14 02:50:12;;;;;;;;;;;;;;;;;;1031178;28;886;-31
2022/01/14 02:50:54;;;;;;;;;;;;;;;;;;1031260;28;843;-32
2022/01/14 02:51:25;;;;;;;;;;;;;;;;;;1031026;28;1906;-30
2022/01/14 02:51:56;;;;;;;;;;;;;;;;;;1031449;28;883;-33
2022/01/14 02:53:23;;;;;;;;;;;;;;;;;;1031507;28;946;-28
2022/01/14 02:53:57;;;;;;;;;;;;;;;;;;1020950;28;1030;-29
2022/01/14 02:54:20;;;;;;;;;;;;;;;;;;1028432;28;1370;-31
2022/01/14 02:55:13;;;;;;;;;;;;;;;;;;1031450;28;847;-27
2022/01/14 02:55:43;;;;;;;;;;;;;;;;;;1031338;28;1548;-31
2022/01/14 02:56:18;;;;;;;;;;;;;;;;;;1031565;28;898;-31
2022/01/14 02:56:51;;;;;;;;;;;;;;;;;;1031309;28;886;-30
2022/01/14 02:57:22;;;;;;;;;;;;;;;;;;1031592;28;993;-32
2022/01/14 02:57:53;;;;;;;;;;;;;;;;;;1031469;28;776;-28
2022/01/14 02:58:25;;;;;;;;;;;;;;;;;;1031444;28;851;-31
2022/01/14 02:58:56;;;;;;;;;;;;;;;;;;1031056;28;933;-30
2022/01/14 02:59:28;;;;;;;;;;;;;;;;;;1031206;28;836;-30
2022/01/14 02:59:58;;;;;;;;;;;;;;;;;;1031658;28;891;-28
2022/01/14 03:00:30;;;;;;;;;;;;;;;;;;1031493;28;792;-30
2022/01/14 03:01:03;;;;;;;;;;;;;;;;;;1031455;28;839;-28
2022/01/14 03:01:33;;;;;;;;;;;;;;;;;;1031296;28;1562;-29
2022/01/14 03:02:06;;;;;;;;;;;;;;;;;;1031401;28;843;-31
2022/01/14 03:02:36;;;;;;;;;;;;;;;;;;1031585;28;930;-31
2022/01/14 03:03:07;;;;;;;;;;;;;;;;;;1031367;28;954;-31
2022/01/14 03:03:39;;;;;;;;;;;;;;;;;;1031463;28;926;-28
2022/01/14 03:04:10;;;;;;;;;;;;;;;;;;1031486;28;1129;-33
2022/01/14 03:04:41;;;;;;;;;;;;;;;;;;1031520;28;962;-31
2022/01/14 03:05:12;;;;;;;;;;;;;;;;;;1031465;28;907;-29
2022/01/14 03:05:42;;;;;;;;;;;;;;;;;;1031562;28;1149;-31
2022/01/14 03:06:14;;;;;;;;;;;;;;;;;;1031388;28;871;-30
2022/01/14 03:06:44;;;;;;;;;;;;;;;;;;1031662;28;911;-27
2022/01/14 03:07:15;;;;;;;;;;;;;;;;;;1031430;28;953;-27
2022/01/14 03:07:46;;;;;;;;;;;;;;;;;;1031440;28;843;-30
2022/01/14 03:08:17;;;;;;;;;;;;;;;;;;1031507;28;855;-29
2022/01/14 03:08:48;;;;;;;;;;;;;;;;;;1031515;28;1161;-31
2022/01/14 03:09:18;;;;;;;;;;;;;;;;;;1031469;28;954;-29
2022/01/14 03:09:48;;;;;;;;;;;;;;;;;;1031365;28;874;-31
2022/01/14 03:10:19;;;;;;;;;;;;;;;;;;1031258;28;853;-31
2022/01/14 03:10:53;;;;;;;;;;;;;;;;;;1031593;28;771;-31
2022/01/14 03:11:29;;;;;;;;;;;;;;;;;;1031382;28;1985;-28
2022/01/14 03:12:01;;;;;;;;;;;;;;;;;;1031523;28;949;-29
2022/01/14 03:12:31;;;;;;;;;;;;;;;;;;1031445;28;906;-29
2022/01/14 03:13:01;;;;;;;;;;;;;;;;;;1031401;28;851;-27
2022/01/14 03:13:32;;;;;;;;;;;;;;;;;;1031430;28;1077;-29
2022/01/14 03:14:02;;;;;;;;;;;;;;;;;;1031378;28;986;-27
2022/01/14 03:14:33;;;;;;;;;;;;;;;;;;1031417;28;934;-28
2022/01/14 03:15:04;;;;;;;;;;;;;;;;;;1031506;28;835;-30
2022/01/14 03:15:34;;;;;;;;;;;;;;;;;;1031409;28;886;-30
2022/01/14 03:16:04;;;;;;;;;;;;;;;;;;1031386;28;1021;-31
2022/01/14 03:16:39;;;;;;;;;;;;;;;;;;1031569;28;815;-33
2022/01/14 03:17:10;;;;;;;;;;;;;;;;;;1031302;28;1261;-29
2022/01/14 03:17:42;;;;;;;;;;;;;;;;;;1031470;28;946;-29
2022/01/14 03:18:15;;;;;;;;;;;;;;;;;;1031269;28;839;-29
2022/01/14 03:18:49;;;;;;;;;;;;;;;;;;1031581;28;855;-32
2022/01/14 03:19:24;;;;;;;;;;;;;;;;;;1031334;28;791;-29
2022/01/14 03:19:55;;;;;;;;;;;;;;;;;;1031529;28;842;-28
2022/01/14 03:21:12;;;;;;;;;;;;;;;;;;1031422;28;863;-30
2022/01/14 03:21:43;;;;;;;;;;;;;;;;;;1031563;28;1509;-30
2022/01/14 03:23:03;;;;;;;;;;;;;;;;;;1031499;28;961;-29
2022/01/14 03:23:41;;;;;;;;;;;;;;;;;;1031320;28;866;-31
2022/01/14 03:26:08;;;;;;;;;;;;;;;;;;1031268;28;957;-31
2022/01/14 03:26:39;;;;;;;;;;;;;;;;;;1027829;28;1174;-28
2022/01/14 03:27:09;;;;;;;;;;;;;;;;;;1027298;28;958;-32
2022/01/14 03:27:39;;;;;;;;;;;;;;;;;;1027368;28;1696;-29
2022/01/14 03:28:10;;;;;;;;;;;;;;;;;;1027463;28;899;-32
2022/01/14 03:28:40;;;;;;;;;;;;;;;;;;1027325;28;862;-30
2022/01/14 03:29:11;;;;;;;;;;;;;;;;;;1027336;28;986;-28
2022/01/14 03:29:42;;;;;;;;;;;;;;;;;;1027442;28;942;-30
2022/01/14 03:30:12;;;;;;;;;;;;;;;;;;1027285;28;891;-27
2022/01/14 03:30:43;;;;;;;;;;;;;;;;;;1027412;28;945;-30
2022/01/14 03:31:13;;;;;;;;;;;;;;;;;;1027429;28;801;-26
2022/01/14 03:31:44;;;;;;;;;;;;;;;;;;1027210;28;1988;-29
2022/01/14 03:32:15;;;;;;;;;;;;;;;;;;1027443;28;950;-32
2022/01/14 03:32:45;;;;;;;;;;;;;;;;;;1027251;28;962;-31
2022/01/14 03:33:16;;;;;;;;;;;;;;;;;;1027427;28;946;-30
2022/01/14 03:33:46;;;;;;;;;;;;;;;;;;1027352;28;914;-29
2022/01/14 03:34:17;;;;;;;;;;;;;;;;;;1027366;28;832;-32
2022/01/14 03:34:47;;;;;;;;;;;;;;;;;;1027319;28;969;-30
2022/01/14 03:35:18;;;;;;;;;;;;;;;;;;1027172;28;969;-31
2022/01/14 03:35:48;;;;;;;;;;;;;;;;;;1027432;28;953;-26
2022/01/14 03:36:19;;;;;;;;;;;;;;;;;;1027496;28;871;-28
2022/01/14 03:36:49;;;;;;;;;;;;;;;;;;1027287;28;779;-28
2022/01/14 03:37:19;;;;;;;;;;;;;;;;;;1027456;28;926;-31
2022/01/14 03:37:50;;;;;;;;;;;;;;;;;;1027330;28;891;-28
2022/01/14 03:38:20;;;;;;;;;;;;;;;;;;1027513;28;830;-28
2022/01/14 03:38:50;;;;;;;;;;;;;;;;;;1027360;28;938;-29
2022/01/14 03:39:21;;;;;;;;;;;;;;;;;;1027314;28;815;-30
2022/01/14 03:39:51;;;;;;;;;;;;;;;;;;1027456;28;863;-27
2022/01/14 03:40:21;;;;;;;;;;;;;;;;;;1027300;28;890;-30
2022/01/14 03:40:52;;;;;;;;;;;;;;;;;;1027315;28;866;-31
2022/01/14 03:41:22;;;;;;;;;;;;;;;;;;1027429;28;938;-31
2022/01/14 03:41:52;;;;;;;;;;;;;;;;;;1027315;28;918;-31
2022/01/14 03:42:23;;;;;;;;;;;;;;;;;;1027455;28;1063;-31
2022/01/14 03:42:53;;;;;;;;;;;;;;;;;;1027459;28;993;-28
2022/01/14 03:43:24;;;;;;;;;;;;;;;;;;1027149;28;965;-29
2022/01/14 03:43:54;;;;;;;;;;;;;;;;;;1027509;28;835;-30
2022/01/14 03:44:25;;;;;;;;;;;;;;;;;;1027306;28;875;-30
2022/01/14 03:44:55;;;;;;;;;;;;;;;;;;1027417;28;949;-31
2022/01/14 03:45:26;;;;;;;;;;;;;;;;;;1027177;28;934;-27
2022/01/14 03:45:57;;;;;;;;;;;;;;;;;;1027450;28;941;-32
2022/01/14 03:46:27;;;;;;;;;;;;;;;;;;1027318;28;1874;-28
2022/01/14 03:46:57;;;;;;;;;;;;;;;;;;1027472;28;779;-29
2022/01/14 03:47:28;;;;;;;;;;;;;;;;;;1022763;29;1166;-27
2022/01/14 03:47:58;;;;;;;;;;;;;;;;;;1023166;29;922;-28
2022/01/14 03:48:29;;;;;;;;;;;;;;;;;;1022984;29;927;-31
2022/01/14 03:48:59;;;;;;;;;;;;;;;;;;1026068;28;1198;-31
2022/01/14 03:49:29;;;;;;;;;;;;;;;;;;1030352;28;1324;-28
2022/01/14 03:50:00;;;;;;;;;;;;;;;;;;1031229;28;1236;-31
2022/01/14 03:50:30;;;;;;;;;;;;;;;;;;1031141;28;1630;-28
2022/01/14 03:51:01;;;;;;;;;;;;;;;;;;1031355;28;1209;-34
2022/01/14 03:51:31;;;;;;;;;;;;;;;;;;1031075;28;1918;-28
2022/01/14 03:52:01;;;;;;;;;;;;;;;;;;1031552;28;886;-31
2022/01/14 03:52:32;;;;;;;;;;;;;;;;;;1031081;28;1043;-26
2022/01/14 03:53:03;;;;;;;;;;;;;;;;;;1031521;28;1012;-28
2022/01/14 03:53:33;;;;;;;;;;;;;;;;;;1031220;28;1252;-30
2022/01/14 03:54:04;;;;;;;;;;;;;;;;;;1031343;28;784;-31
2022/01/14 03:54:34;;;;;;;;;;;;;;;;;;1031480;28;942;-30
2022/01/14 03:55:05;;;;;;;;;;;;;;;;;;1031280;28;918;-30
2022/01/14 03:55:35;;;;;;;;;;;;;;;;;;1031390;28;934;-28
2022/01/14 03:56:05;;;;;;;;;;;;;;;;;;1031360;28;834;-27
2022/01/14 03:56:36;;;;;;;;;;;;;;;;;;1031303;28;942;-28
2022/01/14 03:57:06;;;;;;;;;;;;;;;;;;1031425;28;938;-31
2022/01/14 03:57:36;;;;;;;;;;;;;;;;;;1031345;28;903;-27
2022/01/14 03:58:07;;;;;;;;;;;;;;;;;;1031252;28;1008;-34
2022/01/14 03:58:37;;;;;;;;;;;;;;;;;;1031471;28;898;-30
2022/01/14 03:59:08;;;;;;;;;;;;;;;;;;1031196;28;942;-31
2022/01/14 03:59:38;;;;;;;;;;;;;;;;;;1031424;28;906;-28
2022/01/14 04:00:09;;;;;;;;;;;;;;;;;;1031221;28;883;-28
2022/01/14 04:00:47;;;;;;;;;;;;;;;;;;1031452;28;739;-29
2022/01/14 04:01:19;;;;;;;;;;;;;;;;;;1031276;28;1041;-28
2022/01/14 04:01:49;;;;;;;;;;;;;;;;;;1031257;28;945;-29
2022/01/14 04:02:20;;;;;;;;;;;;;;;;;;1031296;28;973;-33
2022/01/14 04:02:51;;;;;;;;;;;;;;;;;;1031394;28;894;-30
2022/01/14 04:03:21;;;;;;;;;;;;;;;;;;1031283;28;950;-28
2022/01/14 04:03:52;;;;;;;;;;;;;;;;;;1031371;28;886;-31
2022/01/14 04:04:22;;;;;;;;;;;;;;;;;;1031207;28;962;-32
2022/01/14 04:04:52;;;;;;;;;;;;;;;;;;1031369;28;847;-31